sensor_id;sensor_type;location;lat;lon;timestamp;temperature;humidity
23540;DHT22;11947;50.810;4.394;2022-07-19T00:01:33;22.30;99.90
23540;DHT22;11947;50.810;4.394;2022-07-19T00:03:59;22.30;99.90
23540;DHT22;11947;50.810;4.394;2022-07-19T00:06:25;22.20;99.90
23540;DHT22;11947;50.810;4.394;2022-07-19T00:08:50;22.20;99.90
23540;DHT22;11947;50.810;4.394;2022-07-19T00:11:16;21.90;99.90
23540;DHT22;11947;50.810;4.394;2022-07-19T00:13:41;22.10;99.90
23540;DHT22;11947;50.810;4.394;2022-07-19T00:16:07;22.20;99.90
23540;DHT22;11947;50.810;4.394;2022-07-19T00:18:33;22.10;99.90
23540;DHT22;11947;50.810;4.394;2022-07-19T00:20:59;22.10;99.90
23540;DHT22;11947;50.810;4.394;2022-07-19T00:23:24;22.00;99.90
23540;DHT22;11947;50.810;4.394;2022-07-19T00:25:50;22.00;99.90
23540;DHT22;11947;50.810;4.394;2022-07-19T00:28:16;22.00;99.90
23540;DHT22;11947;50.810;4.394;2022-07-19T00:30:42;22.10;99.90
23540;DHT22;11947;50.810;4.394;2022-07-19T00:33:07;22.00;99.90
23540;DHT22;11947;50.810;4.394;2022-07-19T00:35:40;22.00;99.90
23540;DHT22;11947;50.810;4.394;2022-07-19T00:38:08;22.00;99.90
23540;DHT22;11947;50.810;4.394;2022-07-19T00:40:34;22.00;99.90
23540;DHT22;11947;50.810;4.394;2022-07-19T00:43:00;22.00;99.90
23540;DHT22;11947;50.810;4.394;2022-07-19T00:45:26;22.00;99.90
23540;DHT22;11947;50.810;4.394;2022-07-19T00:47:52;21.90;99.90
23540;DHT22;11947;50.810;4.394;2022-07-19T00:50:19;21.80;99.90
23540;DHT22;11947;50.810;4.394;2022-07-19T00:52:56;21.80;99.90
23540;DHT22;11947;50.810;4.394;2022-07-19T00:55:23;21.80;99.90
23540;DHT22;11947;50.810;4.394;2022-07-19T00:57:49;21.80;99.90
23540;DHT22;11947;50.810;4.394;2022-07-19T01:00:16;21.70;99.90
23540;DHT22;11947;50.810;4.394;2022-07-19T01:02:44;21.60;99.90
23540;DHT22;11947;50.810;4.394;2022-07-19T01:05:11;21.60;99.90
23540;DHT22;11947;50.810;4.394;2022-07-19T01:07:37;21.70;99.90
23540;DHT22;11947;50.810;4.394;2022-07-19T01:10:06;21.70;99.90
23540;DHT22;11947;50.810;4.394;2022-07-19T01:12:33;21.60;99.90
23540;DHT22;11947;50.810;4.394;2022-07-19T01:14:59;21.60;99.90
23540;DHT22;11947;50.810;4.394;2022-07-19T01:17:25;21.60;99.90
23540;DHT22;11947;50.810;4.394;2022-07-19T01:19:52;21.60;99.90
23540;DHT22;11947;50.810;4.394;2022-07-19T01:22:18;21.60;99.90
23540;DHT22;11947;50.810;4.394;2022-07-19T01:24:44;21.50;99.90
23540;DHT22;11947;50.810;4.394;2022-07-19T01:27:10;21.50;99.90
23540;DHT22;11947;50.810;4.394;2022-07-19T01:29:36;21.50;99.90
23540;DHT22;11947;50.810;4.394;2022-07-19T01:32:05;21.50;99.90
23540;DHT22;11947;50.810;4.394;2022-07-19T01:34:32;21.50;99.90
23540;DHT22;11947;50.810;4.394;2022-07-19T01:36:58;21.50;99.90
23540;DHT22;11947;50.810;4.394;2022-07-19T01:39:23;21.40;99.90
23540;DHT22;11947;50.810;4.394;2022-07-19T01:41:49;21.40;99.90
23540;DHT22;11947;50.810;4.394;2022-07-19T01:44:14;21.40;99.90
23540;DHT22;11947;50.810;4.394;2022-07-19T01:46:40;21.30;99.90
23540;DHT22;11947;50.810;4.394;2022-07-19T01:49:06;21.20;99.90
23540;DHT22;11947;50.810;4.394;2022-07-19T01:51:31;21.30;99.90
23540;DHT22;11947;50.810;4.394;2022-07-19T01:53:57;21.30;99.90
23540;DHT22;11947;50.810;4.394;2022-07-19T01:56:23;21.20;99.90
23540;DHT22;11947;50.810;4.394;2022-07-19T01:58:48;21.20;99.90
23540;DHT22;11947;50.810;4.394;2022-07-19T02:01:14;21.20;99.90
23540;DHT22;11947;50.810;4.394;2022-07-19T02:03:39;21.20;99.90
23540;DHT22;11947;50.810;4.394;2022-07-19T02:06:05;21.10;99.90
23540;DHT22;11947;50.810;4.394;2022-07-19T02:08:31;21.00;99.90
23540;DHT22;11947;50.810;4.394;2022-07-19T02:10:57;21.00;99.90
23540;DHT22;11947;50.810;4.394;2022-07-19T02:13:24;21.00;99.90
23540;DHT22;11947;50.810;4.394;2022-07-19T02:15:50;21.00;99.90
23540;DHT22;11947;50.810;4.394;2022-07-19T02:18:16;21.00;99.90
23540;DHT22;11947;50.810;4.394;2022-07-19T02:20:41;21.00;99.90
23540;DHT22;11947;50.810;4.394;2022-07-19T02:23:07;21.00;99.90
23540;DHT22;11947;50.810;4.394;2022-07-19T02:25:33;21.00;99.90
23540;DHT22;11947;50.810;4.394;2022-07-19T02:27:58;20.90;99.90
23540;DHT22;11947;50.810;4.394;2022-07-19T02:30:25;20.90;99.90
23540;DHT22;11947;50.810;4.394;2022-07-19T02:32:51;20.80;99.90
23540;DHT22;11947;50.810;4.394;2022-07-19T02:35:17;20.90;99.90
23540;DHT22;11947;50.810;4.394;2022-07-19T02:37:44;20.80;99.90
23540;DHT22;11947;50.810;4.394;2022-07-19T02:40:10;20.80;99.90
23540;DHT22;11947;50.810;4.394;2022-07-19T02:42:36;20.90;99.90
23540;DHT22;11947;50.810;4.394;2022-07-19T02:45:02;20.90;99.90
23540;DHT22;11947;50.810;4.394;2022-07-19T02:47:28;20.80;99.90
23540;DHT22;11947;50.810;4.394;2022-07-19T02:49:53;20.80;99.90
23540;DHT22;11947;50.810;4.394;2022-07-19T02:52:19;20.70;99.90
23540;DHT22;11947;50.810;4.394;2022-07-19T02:54:45;20.70;99.90
23540;DHT22;11947;50.810;4.394;2022-07-19T02:57:10;20.70;99.90
23540;DHT22;11947;50.810;4.394;2022-07-19T02:59:36;20.70;99.90
23540;DHT22;11947;50.810;4.394;2022-07-19T03:02:02;20.70;99.90
23540;DHT22;11947;50.810;4.394;2022-07-19T03:04:27;20.70;99.90
23540;DHT22;11947;50.810;4.394;2022-07-19T03:06:53;20.80;99.90
23540;DHT22;11947;50.810;4.394;2022-07-19T03:09:18;20.80;99.90
23540;DHT22;11947;50.810;4.394;2022-07-19T03:11:45;20.60;99.90
23540;DHT22;11947;50.810;4.394;2022-07-19T03:14:10;20.70;99.90
23540;DHT22;11947;50.810;4.394;2022-07-19T03:16:36;20.70;99.90
23540;DHT22;11947;50.810;4.394;2022-07-19T03:19:02;20.60;99.90
23540;DHT22;11947;50.810;4.394;2022-07-19T03:21:27;20.60;99.90
23540;DHT22;11947;50.810;4.394;2022-07-19T03:23:53;20.70;99.90
23540;DHT22;11947;50.810;4.394;2022-07-19T03:26:18;20.60;99.90
23540;DHT22;11947;50.810;4.394;2022-07-19T03:28:44;20.60;99.90
23540;DHT22;11947;50.810;4.394;2022-07-19T03:31:10;20.50;99.90
23540;DHT22;11947;50.810;4.394;2022-07-19T03:33:35;20.50;99.90
23540;DHT22;11947;50.810;4.394;2022-07-19T03:36:01;20.50;99.90
23540;DHT22;11947;50.810;4.394;2022-07-19T03:38:27;20.50;99.90
23540;DHT22;11947;50.810;4.394;2022-07-19T03:40:52;20.50;99.90
23540;DHT22;11947;50.810;4.394;2022-07-19T03:43:18;20.50;99.90
23540;DHT22;11947;50.810;4.394;2022-07-19T03:45:45;20.50;99.90
23540;DHT22;11947;50.810;4.394;2022-07-19T03:48:11;20.40;99.90
23540;DHT22;11947;50.810;4.394;2022-07-19T03:50:37;20.50;99.90
23540;DHT22;11947;50.810;4.394;2022-07-19T03:53:03;20.50;99.90
23540;DHT22;11947;50.810;4.394;2022-07-19T03:55:29;20.50;99.90
23540;DHT22;11947;50.810;4.394;2022-07-19T03:57:55;20.50;99.90
23540;DHT22;11947;50.810;4.394;2022-07-19T04:00:20;20.50;99.90
23540;DHT22;11947;50.810;4.394;2022-07-19T04:02:46;20.50;99.90
23540;DHT22;11947;50.810;4.394;2022-07-19T04:05:12;20.50;99.90
23540;DHT22;11947;50.810;4.394;2022-07-19T04:07:37;20.50;99.90
23540;DHT22;11947;50.810;4.394;2022-07-19T04:10:03;20.50;99.90
23540;DHT22;11947;50.810;4.394;2022-07-19T04:12:29;20.50;99.90
23540;DHT22;11947;50.810;4.394;2022-07-19T04:14:55;20.40;99.90
23540;DHT22;11947;50.810;4.394;2022-07-19T04:17:21;20.40;99.90
23540;DHT22;11947;50.810;4.394;2022-07-19T04:19:46;20.40;99.90
23540;DHT22;11947;50.810;4.394;2022-07-19T04:22:12;20.60;99.90
23540;DHT22;11947;50.810;4.394;2022-07-19T04:24:38;20.50;99.90
23540;DHT22;11947;50.810;4.394;2022-07-19T04:27:03;20.50;99.90
23540;DHT22;11947;50.810;4.394;2022-07-19T04:29:29;20.50;99.90
23540;DHT22;11947;50.810;4.394;2022-07-19T04:31:55;20.50;99.90
23540;DHT22;11947;50.810;4.394;2022-07-19T04:34:20;20.50;99.90
23540;DHT22;11947;50.810;4.394;2022-07-19T04:36:46;20.50;99.90
23540;DHT22;11947;50.810;4.394;2022-07-19T04:39:12;20.40;99.90
23540;DHT22;11947;50.810;4.394;2022-07-19T04:41:37;20.60;99.90
23540;DHT22;11947;50.810;4.394;2022-07-19T04:44:03;20.60;99.90
23540;DHT22;11947;50.810;4.394;2022-07-19T04:46:29;20.70;99.90
23540;DHT22;11947;50.810;4.394;2022-07-19T04:48:54;20.70;99.90
23540;DHT22;11947;50.810;4.394;2022-07-19T04:51:20;20.70;99.90
23540;DHT22;11947;50.810;4.394;2022-07-19T04:53:46;20.80;99.90
23540;DHT22;11947;50.810;4.394;2022-07-19T04:56:11;20.90;99.90
23540;DHT22;11947;50.810;4.394;2022-07-19T04:58:37;20.90;99.90
23540;DHT22;11947;50.810;4.394;2022-07-19T05:01:02;21.00;99.90
23540;DHT22;11947;50.810;4.394;2022-07-19T05:03:28;21.10;99.90
23540;DHT22;11947;50.810;4.394;2022-07-19T05:05:54;21.10;99.90
23540;DHT22;11947;50.810;4.394;2022-07-19T05:08:19;21.20;99.90
23540;DHT22;11947;50.810;4.394;2022-07-19T05:10:45;21.20;99.90
23540;DHT22;11947;50.810;4.394;2022-07-19T05:13:10;21.30;99.90
23540;DHT22;11947;50.810;4.394;2022-07-19T05:15:36;21.40;99.90
23540;DHT22;11947;50.810;4.394;2022-07-19T05:18:02;21.50;99.90
23540;DHT22;11947;50.810;4.394;2022-07-19T05:20:27;21.60;99.90
23540;DHT22;11947;50.810;4.394;2022-07-19T05:22:53;21.60;99.90
23540;DHT22;11947;50.810;4.394;2022-07-19T05:25:19;21.70;99.90
23540;DHT22;11947;50.810;4.394;2022-07-19T05:27:44;21.90;99.90
23540;DHT22;11947;50.810;4.394;2022-07-19T05:30:11;21.90;99.90
23540;DHT22;11947;50.810;4.394;2022-07-19T05:32:37;22.00;99.90
23540;DHT22;11947;50.810;4.394;2022-07-19T05:35:04;22.10;99.90
23540;DHT22;11947;50.810;4.394;2022-07-19T05:37:29;22.20;99.90
23540;DHT22;11947;50.810;4.394;2022-07-19T05:39:55;22.30;99.90
23540;DHT22;11947;50.810;4.394;2022-07-19T05:42:20;22.50;99.90
23540;DHT22;11947;50.810;4.394;2022-07-19T05:44:46;22.60;99.90
23540;DHT22;11947;50.810;4.394;2022-07-19T05:47:12;22.80;99.90
23540;DHT22;11947;50.810;4.394;2022-07-19T05:49:37;22.90;99.90
23540;DHT22;11947;50.810;4.394;2022-07-19T05:52:03;23.00;99.90
23540;DHT22;11947;50.810;4.394;2022-07-19T05:54:29;23.20;99.90
23540;DHT22;11947;50.810;4.394;2022-07-19T05:56:54;23.30;99.90
23540;DHT22;11947;50.810;4.394;2022-07-19T05:59:20;23.50;99.90
23540;DHT22;11947;50.810;4.394;2022-07-19T06:01:48;23.60;99.90
23540;DHT22;11947;50.810;4.394;2022-07-19T06:04:14;23.80;99.90
23540;DHT22;11947;50.810;4.394;2022-07-19T06:06:40;23.90;99.90
23540;DHT22;11947;50.810;4.394;2022-07-19T06:09:05;24.10;99.90
23540;DHT22;11947;50.810;4.394;2022-07-19T06:11:33;24.20;99.90
23540;DHT22;11947;50.810;4.394;2022-07-19T06:13:59;24.40;99.90
23540;DHT22;11947;50.810;4.394;2022-07-19T06:16:25;24.50;99.90
23540;DHT22;11947;50.810;4.394;2022-07-19T06:18:51;24.70;99.90
23540;DHT22;11947;50.810;4.394;2022-07-19T06:21:18;24.90;99.90
23540;DHT22;11947;50.810;4.394;2022-07-19T06:23:44;25.20;99.90
23540;DHT22;11947;50.810;4.394;2022-07-19T06:26:11;25.50;99.90
23540;DHT22;11947;50.810;4.394;2022-07-19T06:28:38;25.80;99.90
23540;DHT22;11947;50.810;4.394;2022-07-19T06:31:04;26.10;99.90
23540;DHT22;11947;50.810;4.394;2022-07-19T06:33:30;26.50;99.90
23540;DHT22;11947;50.810;4.394;2022-07-19T06:35:55;26.80;99.90
23540;DHT22;11947;50.810;4.394;2022-07-19T06:38:21;27.10;99.90
23540;DHT22;11947;50.810;4.394;2022-07-19T06:40:47;27.50;98.20
23540;DHT22;11947;50.810;4.394;2022-07-19T06:43:12;27.60;99.80
23540;DHT22;11947;50.810;4.394;2022-07-19T06:45:38;27.80;99.10
23540;DHT22;11947;50.810;4.394;2022-07-19T06:48:04;28.10;96.60
23540;DHT22;11947;50.810;4.394;2022-07-19T06:50:30;28.30;95.40
23540;DHT22;11947;50.810;4.394;2022-07-19T06:52:55;28.40;94.10
23540;DHT22;11947;50.810;4.394;2022-07-19T06:55:21;28.60;96.10
23540;DHT22;11947;50.810;4.394;2022-07-19T06:57:47;28.90;95.10
23540;DHT22;11947;50.810;4.394;2022-07-19T07:00:13;29.00;93.60
23540;DHT22;11947;50.810;4.394;2022-07-19T07:02:40;29.30;93.50
23540;DHT22;11947;50.810;4.394;2022-07-19T07:05:07;29.40;93.30
23540;DHT22;11947;50.810;4.394;2022-07-19T07:07:34;29.60;91.90
23540;DHT22;11947;50.810;4.394;2022-07-19T07:10:00;29.70;90.80
23540;DHT22;11947;50.810;4.394;2022-07-19T07:12:28;29.80;90.50
23540;DHT22;11947;50.810;4.394;2022-07-19T07:14:54;29.90;90.20
23540;DHT22;11947;50.810;4.394;2022-07-19T07:17:19;29.90;90.00
23540;DHT22;11947;50.810;4.394;2022-07-19T07:19:45;30.00;89.30
23540;DHT22;11947;50.810;4.394;2022-07-19T07:22:11;30.20;89.50
23540;DHT22;11947;50.810;4.394;2022-07-19T07:24:36;30.30;88.10
23540;DHT22;11947;50.810;4.394;2022-07-19T07:27:02;30.60;87.20
23540;DHT22;11947;50.810;4.394;2022-07-19T07:29:28;30.50;85.60
23540;DHT22;11947;50.810;4.394;2022-07-19T07:31:53;30.40;87.20
23540;DHT22;11947;50.810;4.394;2022-07-19T07:34:19;30.50;85.40
23540;DHT22;11947;50.810;4.394;2022-07-19T07:36:45;30.80;90.00
23540;DHT22;11947;50.810;4.394;2022-07-19T07:39:11;31.00;90.80
23540;DHT22;11947;50.810;4.394;2022-07-19T07:41:37;31.10;85.40
23540;DHT22;11947;50.810;4.394;2022-07-19T07:44:03;31.20;87.30
23540;DHT22;11947;50.810;4.394;2022-07-19T07:46:29;31.30;85.50
23540;DHT22;11947;50.810;4.394;2022-07-19T07:48:55;31.40;85.80
23540;DHT22;11947;50.810;4.394;2022-07-19T07:51:21;31.30;83.60
23540;DHT22;11947;50.810;4.394;2022-07-19T07:53:46;31.50;86.90
23540;DHT22;11947;50.810;4.394;2022-07-19T07:56:12;31.70;84.90
23540;DHT22;11947;50.810;4.394;2022-07-19T07:58:38;31.80;85.10
23540;DHT22;11947;50.810;4.394;2022-07-19T08:01:03;32.00;84.90
23540;DHT22;11947;50.810;4.394;2022-07-19T08:03:29;32.10;83.40
23540;DHT22;11947;50.810;4.394;2022-07-19T08:05:55;32.10;82.40
23540;DHT22;11947;50.810;4.394;2022-07-19T08:08:26;32.10;83.90
23540;DHT22;11947;50.810;4.394;2022-07-19T08:10:56;32.30;82.50
23540;DHT22;11947;50.810;4.394;2022-07-19T08:13:22;32.40;81.80
23540;DHT22;11947;50.810;4.394;2022-07-19T08:15:48;32.30;81.30
23540;DHT22;11947;50.810;4.394;2022-07-19T08:18:14;32.30;81.80
23540;DHT22;11947;50.810;4.394;2022-07-19T08:20:40;32.50;80.40
23540;DHT22;11947;50.810;4.394;2022-07-19T08:23:05;32.60;81.40
23540;DHT22;11947;50.810;4.394;2022-07-19T08:25:31;32.80;82.70
23540;DHT22;11947;50.810;4.394;2022-07-19T08:27:59;32.90;79.40
23540;DHT22;11947;50.810;4.394;2022-07-19T08:30:25;33.00;78.10
23540;DHT22;11947;50.810;4.394;2022-07-19T08:32:51;33.00;79.60
23540;DHT22;11947;50.810;4.394;2022-07-19T08:35:16;33.10;77.70
23540;DHT22;11947;50.810;4.394;2022-07-19T08:37:42;33.30;77.50
23540;DHT22;11947;50.810;4.394;2022-07-19T08:40:08;33.20;76.20
23540;DHT22;11947;50.810;4.394;2022-07-19T08:42:34;33.20;75.50
23540;DHT22;11947;50.810;4.394;2022-07-19T08:45:03;33.30;74.80
23540;DHT22;11947;50.810;4.394;2022-07-19T08:47:30;33.40;74.30
23540;DHT22;11947;50.810;4.394;2022-07-19T08:49:58;33.40;73.60
23540;DHT22;11947;50.810;4.394;2022-07-19T08:52:25;33.60;72.80
23540;DHT22;11947;50.810;4.394;2022-07-19T08:54:51;33.80;75.40
23540;DHT22;11947;50.810;4.394;2022-07-19T08:57:16;33.90;73.80
23540;DHT22;11947;50.810;4.394;2022-07-19T09:00:01;33.90;71.90
23540;DHT22;11947;50.810;4.394;2022-07-19T09:02:26;34.10;72.40
23540;DHT22;11947;50.810;4.394;2022-07-19T09:05:00;34.20;71.20
23540;DHT22;11947;50.810;4.394;2022-07-19T09:07:26;34.30;72.50
23540;DHT22;11947;50.810;4.394;2022-07-19T09:09:52;34.40;70.80
23540;DHT22;11947;50.810;4.394;2022-07-19T09:12:18;34.30;71.00
23540;DHT22;11947;50.810;4.394;2022-07-19T09:14:53;34.40;70.00
23540;DHT22;11947;50.810;4.394;2022-07-19T09:17:18;34.70;69.90
23540;DHT22;11947;50.810;4.394;2022-07-19T09:19:47;34.80;68.50
23540;DHT22;11947;50.810;4.394;2022-07-19T09:22:17;35.10;66.60
23540;DHT22;11947;50.810;4.394;2022-07-19T09:24:50;35.30;66.60
23540;DHT22;11947;50.810;4.394;2022-07-19T09:27:23;35.60;67.40
23540;DHT22;11947;50.810;4.394;2022-07-19T09:29:55;35.70;62.50
23540;DHT22;11947;50.810;4.394;2022-07-19T09:32:22;35.70;64.30
23540;DHT22;11947;50.810;4.394;2022-07-19T09:34:52;35.90;62.20
23540;DHT22;11947;50.810;4.394;2022-07-19T09:39:53;36.50;61.70
23540;DHT22;11947;50.810;4.394;2022-07-19T09:42:33;36.50;60.40
23540;DHT22;11947;50.810;4.394;2022-07-19T09:45:03;36.30;61.80
23540;DHT22;11947;50.810;4.394;2022-07-19T09:47:37;36.50;59.50
23540;DHT22;11947;50.810;4.394;2022-07-19T09:50:08;36.60;60.00
23540;DHT22;11947;50.810;4.394;2022-07-19T09:52:36;36.90;59.40
23540;DHT22;11947;50.810;4.394;2022-07-19T09:55:04;37.20;59.40
23540;DHT22;11947;50.810;4.394;2022-07-19T09:57:40;37.60;59.20
23540;DHT22;11947;50.810;4.394;2022-07-19T10:00:09;38.40;58.10
23540;DHT22;11947;50.810;4.394;2022-07-19T10:02:38;38.70;55.30
23540;DHT22;11947;50.810;4.394;2022-07-19T10:05:05;39.10;55.70
23540;DHT22;11947;50.810;4.394;2022-07-19T10:07:32;39.30;53.90
23540;DHT22;11947;50.810;4.394;2022-07-19T10:10:01;39.70;52.60
23540;DHT22;11947;50.810;4.394;2022-07-19T10:12:28;40.20;51.80
23540;DHT22;11947;50.810;4.394;2022-07-19T10:14:55;40.00;51.80
23540;DHT22;11947;50.810;4.394;2022-07-19T10:17:41;40.20;52.10
23540;DHT22;11947;50.810;4.394;2022-07-19T10:20:16;40.50;51.30
23540;DHT22;11947;50.810;4.394;2022-07-19T10:22:44;40.80;50.50
23540;DHT22;11947;50.810;4.394;2022-07-19T10:25:13;41.40;49.80
23540;DHT22;11947;50.810;4.394;2022-07-19T10:27:42;42.10;50.20
23540;DHT22;11947;50.810;4.394;2022-07-19T10:32:39;43.80;46.40
23540;DHT22;11947;50.810;4.394;2022-07-19T10:37:47;44.10;44.60
23540;DHT22;11947;50.810;4.394;2022-07-19T10:40:13;44.10;44.80
23540;DHT22;11947;50.810;4.394;2022-07-19T10:43:08;45.30;45.30
23540;DHT22;11947;50.810;4.394;2022-07-19T10:45:37;46.90;42.90
23540;DHT22;11947;50.810;4.394;2022-07-19T10:48:04;47.70;42.80
23540;DHT22;11947;50.810;4.394;2022-07-19T10:50:50;47.50;40.80
23540;DHT22;11947;50.810;4.394;2022-07-19T10:56:25;48.10;39.80
23540;DHT22;11947;50.810;4.394;2022-07-19T10:58:58;49.90;39.00
23540;DHT22;11947;50.810;4.394;2022-07-19T11:01:25;50.00;37.80
23540;DHT22;11947;50.810;4.394;2022-07-19T11:03:53;51.00;39.50
23540;DHT22;11947;50.810;4.394;2022-07-19T11:06:22;51.40;36.80
23540;DHT22;11947;50.810;4.394;2022-07-19T11:08:56;49.90;36.70
23540;DHT22;11947;50.810;4.394;2022-07-19T11:11:23;49.80;37.10
23540;DHT22;11947;50.810;4.394;2022-07-19T11:13:56;49.30;37.50
23540;DHT22;11947;50.810;4.394;2022-07-19T11:16:26;50.70;36.10
23540;DHT22;11947;50.810;4.394;2022-07-19T11:18:52;50.30;36.20
23540;DHT22;11947;50.810;4.394;2022-07-19T11:21:17;51.60;37.60
23540;DHT22;11947;50.810;4.394;2022-07-19T11:23:44;53.20;35.70
23540;DHT22;11947;50.810;4.394;2022-07-19T11:26:14;52.80;36.20
23540;DHT22;11947;50.810;4.394;2022-07-19T11:28:41;53.20;35.10
23540;DHT22;11947;50.810;4.394;2022-07-19T11:31:12;54.30;34.90
23540;DHT22;11947;50.810;4.394;2022-07-19T11:33:38;55.00;32.70
23540;DHT22;11947;50.810;4.394;2022-07-19T11:36:04;53.60;33.40
23540;DHT22;11947;50.810;4.394;2022-07-19T11:41:00;55.30;33.50
23540;DHT22;11947;50.810;4.394;2022-07-19T11:43:26;53.90;32.80
23540;DHT22;11947;50.810;4.394;2022-07-19T11:45:52;53.40;32.50
23540;DHT22;11947;50.810;4.394;2022-07-19T11:48:30;53.40;34.20
23540;DHT22;11947;50.810;4.394;2022-07-19T11:51:09;52.10;34.00
23540;DHT22;11947;50.810;4.394;2022-07-19T11:53:37;50.70;34.60
23540;DHT22;11947;50.810;4.394;2022-07-19T11:56:04;50.40;34.90
23540;DHT22;11947;50.810;4.394;2022-07-19T11:58:31;50.20;35.10
23540;DHT22;11947;50.810;4.394;2022-07-19T12:01:02;52.20;36.80
23540;DHT22;11947;50.810;4.394;2022-07-19T12:03:28;54.50;34.00
23540;DHT22;11947;50.810;4.394;2022-07-19T12:05:57;54.20;32.50
23540;DHT22;11947;50.810;4.394;2022-07-19T12:08:32;53.80;33.70
23540;DHT22;11947;50.810;4.394;2022-07-19T12:10:58;54.60;33.40
23540;DHT22;11947;50.810;4.394;2022-07-19T12:15:56;52.90;33.10
23540;DHT22;11947;50.810;4.394;2022-07-19T12:21:25;53.80;34.00
23540;DHT22;11947;50.810;4.394;2022-07-19T12:24:18;52.00;32.70
23540;DHT22;11947;50.810;4.394;2022-07-19T12:27:04;51.60;32.80
23540;DHT22;11947;50.810;4.394;2022-07-19T12:29:36;52.80;33.30
23540;DHT22;11947;50.810;4.394;2022-07-19T12:32:04;52.50;32.50
23540;DHT22;11947;50.810;4.394;2022-07-19T12:37:26;54.30;30.80
23540;DHT22;11947;50.810;4.394;2022-07-19T12:40:00;53.40;31.50
23540;DHT22;11947;50.810;4.394;2022-07-19T12:45:14;52.60;32.40
23540;DHT22;11947;50.810;4.394;2022-07-19T12:47:41;51.30;33.70
23540;DHT22;11947;50.810;4.394;2022-07-19T12:50:09;51.60;33.20
23540;DHT22;11947;50.810;4.394;2022-07-19T12:52:34;52.90;31.80
23540;DHT22;11947;50.810;4.394;2022-07-19T12:55:00;52.80;32.30
23540;DHT22;11947;50.810;4.394;2022-07-19T12:57:26;52.30;32.60
23540;DHT22;11947;50.810;4.394;2022-07-19T12:59:54;51.70;33.00
23540;DHT22;11947;50.810;4.394;2022-07-19T13:02:19;53.00;31.80
23540;DHT22;11947;50.810;4.394;2022-07-19T13:04:45;55.30;31.90
23540;DHT22;11947;50.810;4.394;2022-07-19T13:07:12;56.00;30.50
23540;DHT22;11947;50.810;4.394;2022-07-19T13:09:39;54.00;31.00
23540;DHT22;11947;50.810;4.394;2022-07-19T13:12:07;54.50;30.80
23540;DHT22;11947;50.810;4.394;2022-07-19T13:14:33;54.00;30.40
23540;DHT22;11947;50.810;4.394;2022-07-19T13:16:59;53.30;31.40
23540;DHT22;11947;50.810;4.394;2022-07-19T13:19:25;52.20;31.00
23540;DHT22;11947;50.810;4.394;2022-07-19T13:21:52;51.10;31.70
23540;DHT22;11947;50.810;4.394;2022-07-19T13:24:19;51.70;33.30
23540;DHT22;11947;50.810;4.394;2022-07-19T13:26:44;51.80;31.10
23540;DHT22;11947;50.810;4.394;2022-07-19T13:29:10;52.70;32.20
23540;DHT22;11947;50.810;4.394;2022-07-19T13:31:36;52.50;31.00
23540;DHT22;11947;50.810;4.394;2022-07-19T13:34:02;51.70;30.70
23540;DHT22;11947;50.810;4.394;2022-07-19T13:36:28;52.40;30.90
23540;DHT22;11947;50.810;4.394;2022-07-19T13:38:53;52.50;30.50
23540;DHT22;11947;50.810;4.394;2022-07-19T13:41:19;52.80;30.00
23540;DHT22;11947;50.810;4.394;2022-07-19T13:43:45;52.50;30.80
23540;DHT22;11947;50.810;4.394;2022-07-19T13:46:11;53.60;30.60
23540;DHT22;11947;50.810;4.394;2022-07-19T13:48:38;54.10;29.90
23540;DHT22;11947;50.810;4.394;2022-07-19T13:51:05;53.80;30.60
23540;DHT22;11947;50.810;4.394;2022-07-19T13:53:31;55.80;30.50
23540;DHT22;11947;50.810;4.394;2022-07-19T13:55:57;55.70;29.40
23540;DHT22;11947;50.810;4.394;2022-07-19T13:58:23;55.40;29.00
23540;DHT22;11947;50.810;4.394;2022-07-19T14:00:49;54.70;29.00
23540;DHT22;11947;50.810;4.394;2022-07-19T14:03:15;53.80;29.30
23540;DHT22;11947;50.810;4.394;2022-07-19T14:05:43;52.80;29.70
23540;DHT22;11947;50.810;4.394;2022-07-19T14:08:10;52.00;28.90
23540;DHT22;11947;50.810;4.394;2022-07-19T14:10:37;51.10;29.60
23540;DHT22;11947;50.810;4.394;2022-07-19T14:13:02;50.80;29.80
23540;DHT22;11947;50.810;4.394;2022-07-19T14:15:29;50.40;30.30
23540;DHT22;11947;50.810;4.394;2022-07-19T14:17:54;50.80;30.50
23540;DHT22;11947;50.810;4.394;2022-07-19T14:20:20;50.60;30.10
23540;DHT22;11947;50.810;4.394;2022-07-19T14:22:46;50.10;30.70
23540;DHT22;11947;50.810;4.394;2022-07-19T14:25:11;48.00;31.30
23540;DHT22;11947;50.810;4.394;2022-07-19T14:27:37;46.20;32.30
23540;DHT22;11947;50.810;4.394;2022-07-19T14:30:03;44.10;33.60
23540;DHT22;11947;50.810;4.394;2022-07-19T14:32:29;42.90;35.00
23540;DHT22;11947;50.810;4.394;2022-07-19T14:34:54;42.10;34.80
23540;DHT22;11947;50.810;4.394;2022-07-19T14:37:20;41.60;35.60
23540;DHT22;11947;50.810;4.394;2022-07-19T14:39:46;41.10;34.90
23540;DHT22;11947;50.810;4.394;2022-07-19T14:42:11;40.50;35.00
23540;DHT22;11947;50.810;4.394;2022-07-19T14:44:37;40.30;36.40
23540;DHT22;11947;50.810;4.394;2022-07-19T14:47:03;40.10;36.50
23540;DHT22;11947;50.810;4.394;2022-07-19T14:49:28;39.90;36.50
23540;DHT22;11947;50.810;4.394;2022-07-19T14:51:54;39.70;35.50
23540;DHT22;11947;50.810;4.394;2022-07-19T14:54:20;39.50;38.20
23540;DHT22;11947;50.810;4.394;2022-07-19T14:56:46;39.40;36.40
23540;DHT22;11947;50.810;4.394;2022-07-19T14:59:11;39.30;37.20
23540;DHT22;11947;50.810;4.394;2022-07-19T15:01:37;39.10;36.40
23540;DHT22;11947;50.810;4.394;2022-07-19T15:04:03;39.00;37.20
23540;DHT22;11947;50.810;4.394;2022-07-19T15:06:28;38.90;36.10
23540;DHT22;11947;50.810;4.394;2022-07-19T15:08:54;38.70;35.70
23540;DHT22;11947;50.810;4.394;2022-07-19T15:11:20;38.50;35.80
23540;DHT22;11947;50.810;4.394;2022-07-19T15:13:46;38.40;35.80
23540;DHT22;11947;50.810;4.394;2022-07-19T15:16:11;38.20;36.80
23540;DHT22;11947;50.810;4.394;2022-07-19T15:18:37;38.10;37.50
23540;DHT22;11947;50.810;4.394;2022-07-19T15:21:03;38.10;37.30
23540;DHT22;11947;50.810;4.394;2022-07-19T15:23:31;37.90;37.80
23540;DHT22;11947;50.810;4.394;2022-07-19T15:25:56;37.80;37.90
23540;DHT22;11947;50.810;4.394;2022-07-19T15:28:22;37.70;38.50
23540;DHT22;11947;50.810;4.394;2022-07-19T15:30:48;37.70;39.50
23540;DHT22;11947;50.810;4.394;2022-07-19T15:33:14;37.70;39.80
23540;DHT22;11947;50.810;4.394;2022-07-19T15:35:39;37.70;40.20
23540;DHT22;11947;50.810;4.394;2022-07-19T15:38:05;37.70;39.40
23540;DHT22;11947;50.810;4.394;2022-07-19T15:40:30;37.60;39.50
23540;DHT22;11947;50.810;4.394;2022-07-19T15:42:56;37.70;38.80
23540;DHT22;11947;50.810;4.394;2022-07-19T15:45:22;37.60;39.30
23540;DHT22;11947;50.810;4.394;2022-07-19T15:47:48;37.60;39.70
23540;DHT22;11947;50.810;4.394;2022-07-19T15:50:16;37.60;39.40
23540;DHT22;11947;50.810;4.394;2022-07-19T15:52:43;37.50;39.50